SLC weather

Salt Lake City International Airport
Salt Lake City, Utah, United States

Public forecast

Using degrees Fahrenheit for public forecast. Weather courtesy of forecast.io.

METAR (pilot weather report)

Retrieved 2018/10/19 07:54 UTC (57 minutes ago):

KSLC 190754Z 13007KT 10SM CLR 07/02 A3032 RMK AO2 SLP249 T00720017

TAF (pilot weather forecast)

Retrieved 2018/10/19 06:30 UTC (2 hours ago):

TAF KSLC 190526Z 1906/2012 15005KT P6SM SKC FM191900 33007KT P6SM SKC FM200300 15005KT P6SM SKC